Elk City, Idaho
Current Conditions -  °F | °C
As of 10:55 AM on Thursday 23 Oct 2014 (Local Time) from KGIC Reporting Station
Clear Clear  
Wind Chill: 60°   Ceiling: Unl
Heat Index: 60°   Visibility: 10mi
Dew Point: 38°   Wind: 21mph
Humidity: 45%   Direction: 220°SW
Pressure: 29.9"   Gusts: 39mph
Location:  45.83°N, 115.44°W
Report Text: KGIC 231755Z AUTO 22018G34KT 10SM CLR 16/04 A2990 RMK AO1 T01550036 10311 21008
Loading
Personal Weather Stations






























Interactive Weather Map
Tropical Storm Tracking
New forecast layout! Learn more

10-Day Weather Forecast

Advertisements
Track Severe Weather on mobile